Time;durP1;ratioP1;P1;durP2;ratioP2;P2;SDS_P1;SDS_P2;PMS_P1;PMS_P2;Temp;Humidity;BMP_temperature;BMP_pressure;BME280_temperature;BME280_humidity;BME280_pressure;Samples;Min_cycle;Max_cycle;Signal;HPM_P1;HPM_P2
2021/06/30 00:00:54;;;;;;;18.33;11.65;;;;;;;17.98;89.38;99718.84;5059750;28;20056;-82
2021/06/30 00:03:21;;;;;;;16.00;9.57;;;;;;;18.09;88.15;99727.44;5059893;28;20064;-82
2021/06/30 00:05:49;;;;;;;13.85;8.68;;;;;;;17.89;88.74;99725.97;5058845;28;20052;-82
2021/06/30 00:08:18;;;;;;;14.32;9.27;;;;;;;17.81;88.77;99722.22;5059902;28;20049;-81
2021/06/30 00:10:47;;;;;;;;;;;;;;;17.75;90.40;99713.28;5059880;28;20044;-81
2021/06/30 00:13:15;;;;;;;12.95;8.32;;;;;;;17.87;89.34;99715.09;5059696;28;19920;-81
2021/06/30 00:15:47;;;;;;;12.50;8.20;;;;;;;17.74;87.02;99714.47;5058403;28;20076;-81
2021/06/30 00:18:14;;;;;;;11.27;7.82;;;;;;;17.84;88.43;99725.09;5065108;28;20470;-80
2021/06/30 00:20:42;;;;;;;12.50;8.98;;;;;;;17.81;88.64;99720.22;5058927;28;20053;-81
2021/06/30 00:23:10;;;;;;;11.68;8.35;;;;;;;17.89;89.15;99723.13;5062421;28;20056;-80
2021/06/30 00:25:37;;;;;;;10.90;7.90;;;;;;;17.91;88.66;99715.13;5081224;28;20120;-81
2021/06/30 00:28:06;;;;;;;12.00;7.93;;;;;;;17.90;88.64;99717.13;5082383;28;20053;-80
2021/06/30 00:30:34;;;;;;;10.70;7.85;;;;;;;17.96;88.84;99714.78;5082647;28;20048;-82
2021/06/30 00:33:01;;;;;;;10.45;7.53;;;;;;;17.96;88.41;99715.59;5082867;28;20041;-82
2021/06/30 00:35:29;;;;;;;13.02;8.65;;;;;;;18.01;88.68;99717.25;5065395;28;20071;-82
2021/06/30 00:37:56;;;;;;;10.82;7.82;;;;;;;18.01;88.00;99720.88;5062506;28;20053;-82
2021/06/30 00:40:23;;;;;;;11.38;7.68;;;;;;;18.02;88.16;99711.25;5063779;28;20060;-82
2021/06/30 00:42:52;;;;;;;12.00;7.45;;;;;;;18.00;87.70;99719.28;5067093;28;20048;-82
2021/06/30 00:45:21;;;;;;;10.65;7.07;;;;;;;18.06;87.49;99722.56;5081728;28;20056;-81
2021/06/30 00:47:49;;;;;;;10.50;7.45;;;;;;;18.07;87.07;99731.84;5086946;28;20555;-82
2021/06/30 00:50:18;;;;;;;24.05;8.73;;;;;;;18.10;88.03;99719.78;5085179;28;20049;-82
2021/06/30 00:52:47;;;;;;;11.00;7.63;;;;;;;18.10;87.56;99725.41;5084778;28;20056;-82
2021/06/30 00:55:15;;;;;;;11.45;7.85;;;;;;;17.93;87.46;99721.19;5075523;28;20053;-82
2021/06/30 00:57:43;;;;;;;16.55;10.63;;;;;;;17.98;86.39;99720.88;5085460;28;20052;-82
2021/06/30 01:00:13;;;;;;;14.82;10.13;;;;;;;17.95;87.29;99728.06;5085818;28;20063;-81
2021/06/30 01:02:42;;;;;;;17.58;12.15;;;;;;;17.90;86.51;99719.16;5082309;28;20382;-81
2021/06/30 01:05:11;;;;;;;21.38;12.90;;;;;;;17.82;86.07;99715.38;5070668;28;20057;-81
2021/06/30 01:07:40;;;;;;;18.10;11.77;;;;;;;17.73;86.72;99717.69;5062622;28;20056;-82
2021/06/30 01:10:08;;;;;;;16.83;11.88;;;;;;;17.61;86.95;99711.06;5062311;28;20465;-81
2021/06/30 01:12:36;;;;;;;17.15;11.55;;;;;;;17.40;86.50;99722.84;5061984;28;20225;-81
2021/06/30 01:15:04;;;;;;;18.73;12.60;;;;;;;17.54;87.02;99724.25;5070597;28;20060;-80
2021/06/30 01:17:32;;;;;;;18.27;13.30;;;;;;;17.50;87.75;99729.03;5081120;28;20052;-81
2021/06/30 01:20:01;;;;;;;17.75;11.93;;;;;;;17.49;86.03;99739.47;5081016;28;20056;-79
2021/06/30 01:22:28;;;;;;;16.85;12.52;;;;;;;17.50;86.12;99734.66;5076706;28;20056;-81
2021/06/30 01:24:57;;;;;;;18.00;12.07;;;;;;;17.50;87.21;99732.66;5076420;28;20060;-81
2021/06/30 01:27:33;;;;;;;17.67;13.05;;;;;;;17.60;87.17;99731.19;5080366;28;20048;-81
2021/06/30 01:30:04;;;;;;;16.77;13.27;;;;;;;17.54;85.85;99732.72;5069635;28;20053;-80
2021/06/30 01:32:31;;;;;;;20.80;14.27;;;;;;;17.51;86.30;99728.63;5058950;28;20053;-80
2021/06/30 01:34:59;;;;;;;19.52;13.60;;;;;;;17.44;86.05;99729.34;5046784;28;20054;-80
2021/06/30 01:37:26;;;;;;;21.02;15.23;;;;;;;17.38;86.40;99735.66;5039552;28;20064;-81
2021/06/30 01:39:54;;;;;;;23.77;15.77;;;;;;;17.46;86.47;99731.78;5039053;28;20045;-81
2021/06/30 01:42:22;;;;;;;22.63;15.10;;;;;;;17.50;86.60;99738.28;5041088;28;20053;-80
2021/06/30 01:44:50;;;;;;;26.27;16.23;;;;;;;17.53;86.60;99731.06;5053397;28;20049;-80
2021/06/30 01:47:17;;;;;;;24.65;15.88;;;;;;;17.42;86.25;99726.09;5074995;28;20064;-80
2021/06/30 01:49:44;;;;;;;27.25;16.23;;;;;;;17.46;85.97;99714.88;5079973;28;20055;-80
2021/06/30 01:52:16;;;;;;;25.98;16.33;;;;;;;17.50;86.40;99715.75;5079420;28;20048;-81
2021/06/30 01:54:44;;;;;;;24.98;15.77;;;;;;;17.51;86.10;99706.09;5068555;28;20053;-81
2021/06/30 01:57:11;;;;;;;22.98;15.32;;;;;;;17.52;86.29;99692.84;5060053;28;20057;-81
2021/06/30 01:59:40;;;;;;;24.15;15.57;;;;;;;17.34;85.43;99696.19;5059299;28;20478;-80
2021/06/30 02:02:08;;;;;;;28.40;17.50;;;;;;;17.23;85.95;99690.41;5060244;28;20478;-80
2021/06/30 02:04:35;;;;;;;27.70;17.00;;;;;;;17.26;85.61;99691.69;5064537;28;20059;-81
2021/06/30 02:07:02;;;;;;;28.00;17.08;;;;;;;17.27;85.69;99696.09;5079973;28;20052;-81
2021/06/30 02:09:30;;;;;;;29.42;17.23;;;;;;;17.12;85.59;99699.91;5079512;28;20063;-81
2021/06/30 02:11:57;;;;;;;26.48;17.25;;;;;;;17.19;85.97;99685.94;5080477;28;20048;-82
2021/06/30 02:14:25;;;;;;;31.98;18.17;;;;;;;17.23;85.91;99689.59;5077639;28;20489;-81
2021/06/30 02:16:56;;;;;;;31.70;17.95;;;;;;;17.17;85.79;99702.38;5070541;28;20053;-82
2021/06/30 02:19:24;;;;;;;28.48;17.15;;;;;;;17.04;85.69;99694.13;5059773;28;20405;-81
2021/06/30 02:21:51;;;;;;;29.17;17.27;;;;;;;17.10;85.44;99700.28;5061527;28;20072;-82
2021/06/30 02:24:18;;;;;;;30.73;17.58;;;;;;;17.05;85.70;99697.78;5067157;28;20052;-82
2021/06/30 02:26:47;;;;;;;32.30;17.88;;;;;;;17.09;85.45;99700.63;5080821;28;20048;-81
2021/06/30 02:29:14;;;;;;;30.23;17.35;;;;;;;16.96;85.60;99703.66;5080237;28;20067;-81
2021/06/30 02:31:42;;;;;;;28.05;17.63;;;;;;;17.04;85.93;99713.03;5077012;28;20052;-80
2021/06/30 02:34:10;;;;;;;29.42;16.85;;;;;;;17.10;85.95;99716.34;5060553;28;20071;-82
2021/06/30 02:36:38;;;;;;;30.93;18.23;;;;;;;17.17;85.87;99719.25;5060234;28;20068;-81
2021/06/30 02:39:06;;;;;;;25.42;15.85;;;;;;;17.16;85.87;99726.91;5059793;28;20479;-81
2021/06/30 02:41:34;;;;;;;26.42;16.60;;;;;;;17.24;85.83;99728.63;5059683;28;20056;-79
2021/06/30 02:44:01;;;;;;;25.15;15.75;;;;;;;17.30;85.40;99728.31;5057924;28;20045;-82
2021/06/30 02:46:29;;;;;;;30.00;17.40;;;;;;;17.29;85.49;99724.69;5062458;28;20060;-82
2021/06/30 02:48:56;;;;;;;23.58;15.93;;;;;;;17.32;85.62;99723.91;5066843;28;20495;-81
2021/06/30 02:51:25;;;;;;;27.50;16.88;;;;;;;17.31;85.39;99719.50;5065500;28;20053;-82
2021/06/30 02:53:52;;;;;;;23.77;14.75;;;;;;;17.30;85.52;99717.84;5066136;28;20055;-81
2021/06/30 02:56:21;;;;;;;25.73;15.98;;;;;;;17.30;85.20;99717.84;5066222;28;20045;-80
2021/06/30 02:58:49;;;;;;;20.17;13.48;;;;;;;17.37;85.06;99706.72;5066450;28;20056;-81
2021/06/30 03:01:17;;;;;;;21.90;13.30;;;;;;;17.38;85.27;99711.13;5065140;28;20076;-82
2021/06/30 03:03:45;;;;;;;18.85;13.55;;;;;;;17.44;85.30;99703.19;5068737;28;20049;-80
2021/06/30 03:06:12;;;;;;;16.42;12.20;;;;;;;17.52;85.47;99702.09;5084843;28;20055;-82
2021/06/30 03:08:41;;;;;;;16.33;10.93;;;;;;;17.54;84.75;99707.38;5085006;28;20052;-82
2021/06/30 03:11:08;;;;;;;16.37;11.73;;;;;;;17.56;84.71;99708.59;5085818;28;20049;-81
2021/06/30 03:13:35;;;;;;;16.35;12.05;;;;;;;17.53;84.44;99717.00;5087082;28;20052;-80
2021/06/30 03:16:03;;;;;;;15.20;11.68;;;;;;;17.43;84.22;99716.47;5064612;28;20060;-81
2021/06/30 03:18:31;;;;;;;17.45;11.57;;;;;;;17.42;84.31;99717.63;5063548;28;20049;-80
2021/06/30 03:20:58;;;;;;;16.08;12.32;;;;;;;17.52;83.93;99715.38;5064451;28;20075;-81
2021/06/30 03:23:25;;;;;;;20.55;12.82;;;;;;;17.54;83.95;99704.53;5065903;28;20053;-81
2021/06/30 03:25:54;;;;;;;17.75;13.27;;;;;;;17.55;84.18;99708.97;5087450;28;20052;-81
2021/06/30 03:28:22;;;;;;;17.25;12.55;;;;;;;17.57;83.96;99721.47;5087006;28;20048;-82
2021/06/30 03:30:49;;;;;;;16.98;12.50;;;;;;;17.48;83.85;99720.16;5087269;28;20056;-81
2021/06/30 03:33:16;;;;;;;15.35;11.38;;;;;;;17.50;83.94;99720.56;5072601;28;20048;-82
2021/06/30 03:35:47;;;;;;;18.95;11.63;;;;;;;17.53;84.10;99725.44;5070529;28;20055;-81
2021/06/30 03:38:19;;;;;;;15.35;11.15;;;;;;;17.54;84.05;99725.06;5068283;28;20057;-81
2021/06/30 03:40:47;;;;;;;13.45;9.73;;;;;;;17.55;83.94;99728.69;5059561;28;20045;-80
2021/06/30 03:43:15;;;;;;;12.25;9.32;;;;;;;17.40;83.62;99725.66;5069246;28;20049;-82
2021/06/30 03:45:43;;;;;;;12.43;9.27;;;;;;;17.47;83.93;99722.16;5069351;28;20053;-83
2021/06/30 03:48:10;;;;;;;12.20;7.35;;;;;;;17.37;82.61;99723.59;5069580;28;20059;-82
2021/06/30 03:50:37;;;;;;;9.90;7.78;;;;;;;17.39;83.09;99720.41;5069336;28;20056;-81
2021/06/30 03:53:05;;;;;;;10.88;8.13;;;;;;;17.40;83.41;99719.22;5069604;28;20049;-81
2021/06/30 03:55:32;;;;;;;11.73;8.35;;;;;;;17.26;82.42;99719.81;5067995;28;20048;-81
2021/06/30 03:58:00;;;;;;;13.73;9.30;;;;;;;17.24;83.35;99728.63;5069659;28;20057;-82
2021/06/30 04:00:29;;;;;;;13.38;9.25;;;;;;;17.30;83.29;99725.50;5068872;28;20053;-82
2021/06/30 04:02:56;;;;;;;14.10;9.10;;;;;;;17.32;83.79;99729.53;5070880;28;20044;-82
2021/06/30 04:05:24;;;;;;;11.27;8.93;;;;;;;17.29;83.50;99733.13;5069463;28;21026;-82
2021/06/30 04:07:51;;;;;;;13.75;9.35;;;;;;;17.32;83.32;99734.38;5067482;28;20044;-80
2021/06/30 04:10:19;;;;;;;11.23;8.70;;;;;;;17.34;83.17;99735.59;5066633;28;20067;-81
2021/06/30 04:12:46;;;;;;;10.45;7.72;;;;;;;17.45;82.72;99730.16;5067159;28;20049;-81
2021/06/30 04:15:16;;;;;;;11.63;8.07;;;;;;;17.35;82.00;99728.81;5068882;28;20049;-80
2021/06/30 04:17:46;;;;;;;11.88;7.75;;;;;;;17.39;82.17;99735.31;5067308;28;20045;-80
2021/06/30 04:20:14;;;;;;;10.40;7.57;;;;;;;17.38;82.08;99733.66;5067487;28;20049;-80
2021/06/30 04:22:41;;;;;;;11.82;8.20;;;;;;;17.47;82.20;99741.03;5068853;28;20060;-80
2021/06/30 04:25:10;;;;;;;9.40;7.72;;;;;;;17.47;81.73;99735.41;5067241;28;20049;-81
2021/06/30 04:27:37;;;;;;;11.98;9.00;;;;;;;17.39;81.57;99735.31;5068417;28;20128;-80
2021/06/30 04:30:07;;;;;;;10.80;8.50;;;;;;;17.29;81.30;99738.75;5067309;28;20049;-79
2021/06/30 04:32:34;;;;;;;;;;;;;;;16.89;80.79;99742.13;5057728;28;20064;-81
2021/06/30 04:35:04;;;;;;;12.77;9.77;;;;;;;17.16;82.53;99740.97;5074616;28;19920;-80
2021/06/30 04:37:31;;;;;;;11.20;9.20;;;;;;;17.31;82.37;99733.56;5087979;28;20059;-81
2021/06/30 04:39:59;;;;;;;11.93;8.73;;;;;;;17.43;82.53;99726.91;5087374;28;20049;-80
2021/06/30 04:42:26;;;;;;;13.43;9.23;;;;;;;17.49;81.73;99716.13;5087386;28;20049;-80
2021/06/30 04:44:54;;;;;;;11.45;8.27;;;;;;;17.49;81.04;99718.94;5073716;28;20052;-81
2021/06/30 04:47:21;;;;;;;10.40;8.77;;;;;;;17.48;81.83;99714.50;5046401;28;20050;-80
2021/06/30 04:49:48;;;;;;;11.13;7.78;;;;;;;17.55;81.37;99723.06;5027281;28;20409;-81
2021/06/30 04:52:17;;;;;;;8.55;7.35;;;;;;;17.57;80.48;99724.28;5028079;28;20057;-81
2021/06/30 04:54:44;;;;;;;12.23;7.55;;;;;;;17.69;80.59;99712.00;5049212;28;20061;-81
2021/06/30 04:57:12;;;;;;;8.43;7.60;;;;;;;17.82;80.65;99716.22;5068409;28;20057;-82
2021/06/30 04:59:39;;;;;;;9.77;7.43;;;;;;;17.91;80.53;99717.94;5064770;28;20053;-82
2021/06/30 05:02:06;;;;;;;11.25;8.60;;;;;;;17.94;80.79;99722.81;5066673;28;20059;-82
2021/06/30 05:04:34;;;;;;;10.35;8.18;;;;;;;17.95;80.79;99713.16;5064606;28;20034;-81
2021/06/30 05:07:01;;;;;;;12.27;8.38;;;;;;;17.98;80.54;99726.50;5065986;28;20057;-81
2021/06/30 05:09:30;;;;;;;11.23;8.32;;;;;;;17.98;80.24;99726.50;5071048;28;20057;-81
2021/06/30 05:11:57;;;;;;;13.57;8.65;;;;;;;17.97;80.14;99722.03;5056350;28;20060;-81
2021/06/30 05:14:25;;;;;;;14.85;9.73;;;;;;;17.90;79.83;99727.59;5063569;28;20037;-82
2021/06/30 05:16:52;;;;;;;11.20;8.60;;;;;;;17.91;79.61;99738.50;5052068;28;20067;-81
2021/06/30 05:19:19;;;;;;;11.32;8.85;;;;;;;18.01;79.40;99740.59;5051424;28;20065;-81
2021/06/30 05:21:47;;;;;;;15.23;10.27;;;;;;;18.22;79.07;99742.09;5052962;28;20055;-81
2021/06/30 05:24:14;;;;;;;12.32;9.88;;;;;;;18.52;78.49;99744.03;5059579;28;20056;-81
2021/06/30 05:26:43;;;;;;;12.05;9.45;;;;;;;18.69;77.01;99745.41;5053752;28;20064;-81
2021/06/30 05:29:10;;;;;;;11.77;10.30;;;;;;;18.87;76.57;99743.59;5044808;28;20158;-81
2021/06/30 05:31:38;;;;;;;10.68;9.50;;;;;;;18.93;75.84;99749.72;5059079;28;20050;-81
2021/06/30 05:34:07;;;;;;;11.15;9.30;;;;;;;18.99;76.01;99742.53;5049675;28;20041;-81
2021/06/30 05:36:34;;;;;;;13.02;10.88;;;;;;;18.83;76.70;99748.41;5061247;28;20056;-80
2021/06/30 05:39:02;;;;;;;11.20;10.00;;;;;;;18.80;77.23;99746.38;5050246;28;20064;-80
2021/06/30 05:41:29;;;;;;;14.57;9.93;;;;;;;18.69;75.37;99746.25;5050399;28;20053;-81
2021/06/30 05:43:58;;;;;;;12.23;10.23;;;;;;;18.76;76.29;99745.50;5044928;28;20063;-80
2021/06/30 05:46:25;;;;;;;12.90;10.80;;;;;;;18.86;76.40;99742.81;5047420;28;20052;-81
2021/06/30 05:48:52;;;;;;;13.90;11.23;;;;;;;18.93;76.18;99746.91;5063008;28;20067;-81
2021/06/30 05:51:20;;;;;;;12.13;10.88;;;;;;;19.13;76.29;99747.47;5068607;28;20050;-81
2021/06/30 05:53:47;;;;;;;13.00;11.70;;;;;;;19.03;73.71;99744.16;5068928;28;20060;-80
2021/06/30 05:56:15;;;;;;;12.18;10.90;;;;;;;19.06;73.88;99743.38;5060488;28;20045;-81
2021/06/30 05:58:42;;;;;;;13.32;11.93;;;;;;;19.20;75.07;99739.06;5070350;28;20057;-81
2021/06/30 06:01:12;;;;;;;11.88;10.68;;;;;;;19.29;74.51;99745.19;5072862;28;20053;-82
2021/06/30 06:03:39;;;;;;;14.85;12.18;;;;;;;19.31;74.25;99739.94;5071560;28;20083;-82
2021/06/30 06:06:06;;;;;;;11.52;9.70;;;;;;;19.38;73.53;99733.53;5059894;28;20053;-80
2021/06/30 06:08:38;;;;;;;10.35;8.77;;;;;;;19.25;72.88;99741.50;5069858;28;20052;-81
2021/06/30 06:11:10;;;;;;;10.10;7.90;;;;;;;19.23;74.10;99752.38;5061906;28;20053;-81
2021/06/30 06:13:38;;;;;;;9.23;7.95;;;;;;;18.98;73.83;99747.38;5069493;28;20048;-81
2021/06/30 06:16:08;;;;;;;9.02;7.63;;;;;;;18.80;72.74;99752.03;5059974;28;20054;-81
2021/06/30 06:18:37;;;;;;;8.35;7.40;;;;;;;18.54;73.43;99756.56;5077494;28;20383;-80
2021/06/30 06:21:04;;;;;;;6.25;5.30;;;;;;;18.46;73.24;99755.66;5051170;28;20064;-79
2021/06/30 06:23:32;;;;;;;7.07;6.38;;;;;;;18.01;74.91;99742.63;5048455;28;20057;-79
2021/06/30 06:25:59;;;;;;;6.50;5.22;;;;;;;18.28;75.68;99729.28;5073005;28;20064;-78
2021/06/30 06:28:31;;;;;;;6.20;5.53;;;;;;;17.87;75.39;99734.81;5064523;28;20052;-78
2021/06/30 06:30:58;;;;;;;7.05;6.00;;;;;;;18.06;74.10;99742.31;5047378;28;20095;-78
2021/06/30 06:33:25;;;;;;;5.97;5.18;;;;;;;18.26;74.59;99735.28;5057647;28;20060;-80
2021/06/30 06:35:54;;;;;;;7.32;6.00;;;;;;;18.48;74.55;99740.34;5052937;28;20045;-79
2021/06/30 06:38:23;;;;;;;6.38;5.50;;;;;;;18.48;74.67;99748.81;5065411;28;20040;-80
2021/06/30 06:40:51;;;;;;;7.45;5.20;;;;;;;18.56;74.47;99748.53;5071023;28;20389;-80
2021/06/30 06:43:19;;;;;;;5.78;5.18;;;;;;;18.81;72.41;99747.97;5076213;28;20493;-79
2021/06/30 06:45:46;;;;;;;5.53;4.70;;;;;;;18.93;72.93;99744.06;5051359;28;20048;-79
2021/06/30 06:48:13;;;;;;;5.80;4.40;;;;;;;18.92;73.10;99742.44;5058654;28;20052;-79
2021/06/30 06:50:41;;;;;;;5.13;3.80;;;;;;;19.03;72.63;99744.16;5054071;28;20469;-80
2021/06/30 06:53:10;;;;;;;5.28;3.63;;;;;;;19.08;73.46;99743.00;5060932;28;20052;-80
2021/06/30 06:55:40;;;;;;;6.13;3.22;;;;;;;19.37;72.88;99734.75;5071757;28;20492;-78
2021/06/30 06:58:08;;;;;;;5.18;3.28;;;;;;;19.25;69.79;99735.88;5058792;28;20056;-77
2021/06/30 07:00:36;;;;;;;4.88;3.45;;;;;;;19.70;71.23;99739.44;5056227;28;20060;-77
2021/06/30 07:03:04;;;;;;;4.47;3.40;;;;;;;19.84;71.34;99738.69;5045278;28;20057;-78
2021/06/30 07:05:31;;;;;;;4.28;3.17;;;;;;;19.73;69.35;99740.66;5066798;28;20060;-80
2021/06/30 07:07:58;;;;;;;4.68;2.80;;;;;;;19.81;70.74;99742.34;5060455;28;20060;-81
2021/06/30 07:10:27;;;;;;;4.55;3.00;;;;;;;19.71;70.01;99741.06;5058466;28;20049;-81
2021/06/30 07:12:55;;;;;;;4.25;3.25;;;;;;;19.52;70.88;99735.66;5058199;28;20044;-80
2021/06/30 07:15:23;;;;;;;3.75;2.90;;;;;;;19.55;69.14;99737.69;5048921;28;20383;-81
2021/06/30 07:17:50;;;;;;;3.50;2.25;;;;;;;19.99;69.32;99748.91;5073033;28;20045;-81
2021/06/30 07:20:18;;;;;;;3.05;2.60;;;;;;;20.21;68.12;99741.31;5077725;28;20048;-80
2021/06/30 07:22:45;;;;;;;4.18;2.90;;;;;;;20.35;68.66;99734.06;5077772;28;20059;-81
2021/06/30 07:25:14;;;;;;;3.38;2.70;;;;;;;20.40;68.40;99726.00;5062875;28;20056;-81
2021/06/30 07:27:43;;;;;;;3.25;2.40;;;;;;;20.71;68.81;99731.38;5054354;28;20053;-79
2021/06/30 07:30:11;;;;;;;4.35;2.50;;;;;;;20.76;67.93;99734.59;5055114;28;20052;-79
2021/06/30 07:32:38;;;;;;;3.40;2.40;;;;;;;20.52;67.11;99735.34;5055658;28;20053;-78
2021/06/30 07:35:06;;;;;;;2.53;2.10;;;;;;;20.61;67.70;99733.78;5057748;28;20064;-79
2021/06/30 07:37:33;;;;;;;3.55;2.20;;;;;;;20.73;67.79;99731.78;5058048;28;20053;-79
2021/06/30 07:40:01;;;;;;;4.10;2.38;;;;;;;20.78;66.48;99734.22;5056104;28;20053;-80
2021/06/30 07:42:28;;;;;;;2.53;2.30;;;;;;;21.17;66.67;99728.56;5056439;28;20045;-78
2021/06/30 07:44:57;;;;;;;4.63;2.10;;;;;;;21.62;65.05;99730.97;5065698;28;20052;-79
2021/06/30 07:47:24;;;;;;;2.58;2.10;;;;;;;21.84;63.68;99718.38;5059984;28;20052;-78
2021/06/30 07:49:52;;;;;;;2.30;2.10;;;;;;;22.05;61.95;99719.53;5058751;28;20401;-78
2021/06/30 07:52:20;;;;;;;3.78;2.00;;;;;;;22.19;61.73;99716.59;5058066;28;20064;-78
2021/06/30 07:54:47;;;;;;;3.38;1.95;;;;;;;22.65;60.75;99711.94;5058015;28;20053;-79
2021/06/30 07:57:14;;;;;;;5.45;2.85;;;;;;;23.32;59.27;99717.53;5058524;28;20045;-79
2021/06/30 07:59:42;;;;;;;2.42;1.70;;;;;;;23.37;55.84;99703.69;5057113;28;20159;-80
2021/06/30 08:02:11;;;;;;;3.95;1.73;;;;;;;23.46;58.87;99709.66;5055050;28;20045;-79
2021/06/30 08:04:38;;;;;;;4.22;2.45;;;;;;;23.50;58.16;99715.31;5063692;28;20060;-80
2021/06/30 08:07:06;;;;;;;4.78;2.60;;;;;;;22.68;57.94;99711.91;5056734;28;20409;-79
2021/06/30 08:09:35;;;;;;;2.47;2.20;;;;;;;22.81;58.42;99717.91;5062485;28;20073;-79
2021/06/30 08:12:05;;;;;;;4.30;2.78;;;;;;;22.78;59.16;99715.88;5056458;28;20048;-79
2021/06/30 08:14:33;;;;;;;2.63;2.25;;;;;;;23.01;57.27;99723.06;5059291;28;20057;-79
2021/06/30 08:17:00;;;;;;;3.65;2.47;;;;;;;23.89;56.37;99723.44;5054326;28;20063;-80
2021/06/30 08:19:29;;;;;;;2.63;2.38;;;;;;;25.17;52.01;99715.56;5059416;28;20052;-79
2021/06/30 08:21:57;;;;;;;4.00;2.80;;;;;;;26.08;47.37;99710.66;5053898;28;20053;-82
2021/06/30 08:24:24;;;;;;;2.88;2.40;;;;;;;26.95;47.42;99712.41;5053800;28;20056;-81
2021/06/30 08:26:52;;;;;;;3.50;2.13;;;;;;;27.15;47.43;99715.97;5051364;28;20049;-81
2021/06/30 08:29:21;;;;;;;3.20;2.17;;;;;;;28.15;44.09;99718.25;5060197;28;20061;-81
2021/06/30 08:31:48;;;;;;;;;;;;;;;26.71;46.29;99721.94;5055825;28;20056;-80
2021/06/30 08:34:15;;;;;;;2.25;2.05;;;;;;;26.97;45.60;99716.44;5056639;28;19932;-80
2021/06/30 08:36:45;;;;;;;2.45;2.25;;;;;;;27.86;42.84;99707.59;5044469;28;20055;-80
2021/06/30 08:39:12;;;;;;;2.22;2.03;;;;;;;28.48;42.20;99712.34;5056104;28;20053;-81
2021/06/30 08:41:40;;;;;;;4.03;2.40;;;;;;;29.99;39.36;99690.91;5052399;28;20049;-80
2021/06/30 08:44:07;;;;;;;2.38;2.17;;;;;;;30.46;38.28;99698.56;5059995;28;20048;-81
2021/06/30 08:46:35;;;;;;;3.30;2.08;;;;;;;31.62;35.67;99691.75;5053950;28;20058;-80
2021/06/30 08:49:05;;;;;;;4.07;2.07;;;;;;;30.94;34.72;99696.25;5040276;28;20057;-81
2021/06/30 08:51:32;;;;;;;2.35;2.15;;;;;;;31.24;32.25;99696.63;5035876;28;20470;-79
2021/06/30 08:54:02;;;;;;;2.15;1.95;;;;;;;31.67;32.64;99696.88;5038091;28;20060;-81
2021/06/30 08:56:33;;;;;;;2.35;1.92;;;;;;;32.88;31.76;99693.28;5036138;28;20058;-80
2021/06/30 08:59:02;;;;;;;3.63;2.58;;;;;;;34.04;30.27;99680.31;5040927;28;20054;-81
2021/06/30 09:01:30;;;;;;;;;;;;;;;34.82;28.55;99683.00;5043507;28;20064;-80
2021/06/30 09:03:58;;;;;;;3.38;1.80;;;;;;;34.87;27.99;99684.38;5039206;28;19932;-81
2021/06/30 09:06:27;;;;;;;;;;;;;;;33.21;28.41;99686.72;5043602;28;20052;-81
2021/06/30 09:09:07;;;;;;;2.72;1.60;;;;;;;31.81;32.09;99693.34;5041785;28;19921;-81
2021/06/30 09:11:35;;;;;;;2.33;1.70;;;;;;;32.38;31.06;99694.88;5027310;28;20049;-80
2021/06/30 09:14:23;;;;;;;2.47;1.50;;;;;;;31.86;32.00;99686.16;5034034;28;20056;-81
2021/06/30 09:16:58;;;;;;;2.63;1.57;;;;;;;30.72;32.61;99696.28;5034784;28;20050;-81
2021/06/30 09:19:49;;;;;;;2.25;1.92;;;;;;;29.82;35.02;99696.03;5040026;28;20437;-81
2021/06/30 09:22:17;;;;;;;2.30;1.70;;;;;;;28.34;37.13;99702.13;5039600;28;20053;-79
2021/06/30 09:24:47;;;;;;;2.03;1.33;;;;;;;27.77;37.93;99709.50;5037109;28;20061;-80
2021/06/30 09:27:15;;;;;;;2.10;1.60;;;;;;;27.02;40.30;99684.44;5036514;28;20050;-81
2021/06/30 09:29:44;;;;;;;2.25;1.90;;;;;;;26.46;42.26;99693.13;5039043;28;20068;-80
2021/06/30 09:32:13;;;;;;;2.30;1.67;;;;;;;26.46;42.46;99696.00;5038301;28;20502;-80
2021/06/30 09:34:41;;;;;;;2.38;1.85;;;;;;;26.35;41.93;99695.41;5036216;28;20049;-79
2021/06/30 09:37:10;;;;;;;3.30;1.85;;;;;;;26.19;42.52;99713.31;5044128;28;20049;-80
2021/06/30 09:39:39;;;;;;;3.15;1.80;;;;;;;25.82;42.92;99712.38;5038067;28;20057;-79
2021/06/30 09:42:11;;;;;;;2.50;1.90;;;;;;;26.19;42.72;99696.97;5036357;28;20054;-82
2021/06/30 09:44:40;;;;;;;2.13;1.85;;;;;;;26.36;42.35;99703.53;5041443;28;20061;-81
2021/06/30 09:47:17;;;;;;;2.95;2.15;;;;;;;26.82;42.09;99709.47;5044234;28;20055;-80
2021/06/30 09:49:44;;;;;;;3.00;2.03;;;;;;;27.06;41.52;99708.03;5049059;28;20064;-83
2021/06/30 09:52:15;;;;;;;2.78;2.58;;;;;;;29.92;35.84;99709.22;5062059;28;20053;-83
2021/06/30 09:54:44;;;;;;;2.30;2.03;;;;;;;29.60;34.97;99718.13;5057040;28;20497;-82
2021/06/30 09:57:16;;;;;;;4.32;2.53;;;;;;;30.62;33.87;99705.34;5051603;28;20045;-83
2021/06/30 09:59:44;;;;;;;2.10;1.90;;;;;;;29.95;35.24;99714.00;5050024;28;20068;-82
2021/06/30 10:02:13;;;;;;;3.20;2.10;;;;;;;29.51;35.87;99708.19;5055651;28;20056;-83
2021/06/30 10:04:42;;;;;;;1.92;1.83;;;;;;;29.03;36.48;99715.94;5058182;28;20472;-83
2021/06/30 10:07:12;;;;;;;3.30;1.98;;;;;;;28.72;36.64;99721.44;5058610;28;20052;-83
2021/06/30 10:09:57;;;;;;;2.28;2.08;;;;;;;28.27;38.02;99722.41;5055719;28;20057;-82
2021/06/30 10:12:28;;;;;;;3.03;2.50;;;;;;;27.71;39.32;99738.66;5056664;28;20052;-81
2021/06/30 10:14:56;;;;;;;4.47;2.45;;;;;;;27.40;40.31;99723.16;5054048;28;20056;-82
2021/06/30 10:17:25;;;;;;;3.40;2.97;;;;;;;26.60;42.04;99738.50;5060418;28;20055;-82
2021/06/30 10:19:54;;;;;;;3.60;3.10;;;;;;;26.40;42.67;99738.53;5061516;28;20053;-82
2021/06/30 10:22:23;;;;;;;3.75;3.45;;;;;;;26.31;43.90;99724.03;5056903;28;20041;-81
2021/06/30 10:24:51;;;;;;;3.97;3.67;;;;;;;25.95;43.74;99738.25;5053431;28;20056;-82
2021/06/30 10:27:20;;;;;;;4.75;4.10;;;;;;;25.79;44.84;99736.88;5059401;28;20049;-82
2021/06/30 10:29:54;;;;;;;4.40;4.00;;;;;;;26.17;44.16;99725.16;5061483;28;20060;-82
2021/06/30 10:32:22;;;;;;;4.70;4.30;;;;;;;26.43;43.61;99731.94;5056408;28;20060;-82
2021/06/30 10:34:53;;;;;;;5.65;4.40;;;;;;;26.57;42.68;99730.84;5048985;28;20075;-79
2021/06/30 10:37:23;;;;;;;6.97;6.30;;;;;;;26.82;42.15;99733.13;5058640;28;20041;-80
2021/06/30 10:39:52;;;;;;;4.80;4.40;;;;;;;26.91;41.70;99719.00;5047060;28;20057;-80
2021/06/30 10:42:30;;;;;;;6.28;4.70;;;;;;;26.80;43.04;99729.09;5056626;28;20049;-80
2021/06/30 10:45:05;;;;;;;6.40;4.78;;;;;;;27.14;41.17;99722.97;5053205;28;20292;-81
2021/06/30 10:47:41;;;;;;;5.78;5.25;;;;;;;27.35;40.38;99718.78;5055821;28;20053;-80
2021/06/30 10:50:32;;;;;;;5.53;5.03;;;;;;;27.42;40.10;99715.72;5061842;28;20053;-81
2021/06/30 10:53:38;;;;;;;3.90;3.50;;;;;;;28.43;36.02;99710.03;5042402;28;20056;-84
2021/06/30 10:56:11;;;;;;;3.70;3.40;;;;;;;28.99;35.34;99717.31;5057188;28;20049;-82
2021/06/30 10:58:43;;;;;;;4.30;3.97;;;;;;;29.69;34.32;99712.47;5056361;28;20414;-82
2021/06/30 11:01:19;;;;;;;3.58;3.28;;;;;;;29.93;33.32;99712.88;5057106;28;20060;-82
2021/06/30 11:03:49;;;;;;;3.60;3.30;;;;;;;29.21;34.14;99711.69;5055923;28;20498;-82
2021/06/30 11:06:25;;;;;;;2.78;2.58;;;;;;;28.76;35.09;99718.47;5055194;28;20064;-81
2021/06/30 11:08:55;;;;;;;2.60;2.40;;;;;;;29.19;33.33;99732.25;5050157;28;20064;-83
2021/06/30 11:11:51;;;;;;;2.88;2.67;;;;;;;29.63;31.91;99722.94;5056206;28;20052;-84
2021/06/30 11:14:19;;;;;;;3.20;3.00;;;;;;;30.27;32.49;99734.19;5062356;28;20147;-82
2021/06/30 11:16:55;;;;;;;4.00;3.70;;;;;;;29.76;34.66;99723.75;5058274;28;20379;-81
2021/06/30 11:19:45;;;;;;;4.93;4.43;;;;;;;29.93;34.37;99730.91;5055520;28;20475;-82
2021/06/30 11:22:30;;;;;;;5.10;4.70;;;;;;;29.79;34.49;99727.75;5059932;28;20056;-80
2021/06/30 11:25:02;;;;;;;5.28;4.88;;;;;;;29.35;34.13;99728.41;5055955;28;20052;-82
2021/06/30 11:27:53;;;;;;;4.25;3.85;;;;;;;28.95;34.97;99729.69;5053357;28;20061;-85
2021/06/30 11:30:34;;;;;;;4.75;4.38;;;;;;;28.88;34.32;99734.88;5053554;28;20474;-84
2021/06/30 11:33:04;;;;;;;4.80;4.40;;;;;;;29.54;33.98;99727.31;5056292;28;20059;-85
2021/06/30 11:35:34;;;;;;;4.38;3.97;;;;;;;31.43;32.79;99732.03;5055686;28;20048;-85
2021/06/30 11:38:10;;;;;;;3.90;3.50;;;;;;;32.18;31.15;99736.56;5057174;28;20053;-84